sensor_id;sensor_type;location;lat;lon;timestamp;P1;durP1;ratioP1;P2;durP2;ratioP2
16436;SDS011;8328;52.206;21.006;2023-02-28T00:01:21;12.32;;;7.75;;
16436;SDS011;8328;52.206;21.006;2023-02-28T00:03:47;11.88;;;8.02;;
16436;SDS011;8328;52.206;21.006;2023-02-28T00:06:14;14.88;;;8.60;;
16436;SDS011;8328;52.206;21.006;2023-02-28T00:08:40;16.27;;;8.27;;
16436;SDS011;8328;52.206;21.006;2023-02-28T00:11:11;14.45;;;8.65;;
16436;SDS011;8328;52.206;21.006;2023-02-28T00:13:40;14.10;;;8.13;;
16436;SDS011;8328;52.206;21.006;2023-02-28T00:16:08;13.07;;;7.88;;
16436;SDS011;8328;52.206;21.006;2023-02-28T00:18:36;14.85;;;8.88;;
16436;SDS011;8328;52.206;21.006;2023-02-28T00:21:03;14.13;;;8.45;;
16436;SDS011;8328;52.206;21.006;2023-02-28T00:23:29;15.18;;;9.40;;
16436;SDS011;8328;52.206;21.006;2023-02-28T00:25:55;16.02;;;9.13;;
16436;SDS011;8328;52.206;21.006;2023-02-28T00:28:21;16.92;;;9.07;;
16436;SDS011;8328;52.206;21.006;2023-02-28T00:30:47;16.52;;;9.23;;
16436;SDS011;8328;52.206;21.006;2023-02-28T00:33:13;16.03;;;9.07;;
16436;SDS011;8328;52.206;21.006;2023-02-28T00:35:39;16.17;;;9.15;;
16436;SDS011;8328;52.206;21.006;2023-02-28T00:38:05;19.08;;;9.93;;
16436;SDS011;8328;52.206;21.006;2023-02-28T00:40:31;16.43;;;8.63;;
16436;SDS011;8328;52.206;21.006;2023-02-28T00:42:57;12.07;;;7.87;;
16436;SDS011;8328;52.206;21.006;2023-02-28T00:45:23;13.30;;;7.23;;
16436;SDS011;8328;52.206;21.006;2023-02-28T00:47:49;15.63;;;8.23;;
16436;SDS011;8328;52.206;21.006;2023-02-28T00:50:18;13.17;;;7.57;;
16436;SDS011;8328;52.206;21.006;2023-02-28T00:52:45;14.10;;;7.93;;
16436;SDS011;8328;52.206;21.006;2023-02-28T00:55:12;16.38;;;9.40;;
16436;SDS011;8328;52.206;21.006;2023-02-28T00:57:37;15.53;;;9.33;;
16436;SDS011;8328;52.206;21.006;2023-02-28T01:00:04;19.40;;;10.53;;
16436;SDS011;8328;52.206;21.006;2023-02-28T01:02:31;17.15;;;10.25;;
16436;SDS011;8328;52.206;21.006;2023-02-28T01:04:57;17.33;;;9.93;;
16436;SDS011;8328;52.206;21.006;2023-02-28T01:07:23;18.17;;;10.20;;
16436;SDS011;8328;52.206;21.006;2023-02-28T01:09:49;22.03;;;10.70;;
16436;SDS011;8328;52.206;21.006;2023-02-28T01:12:15;16.30;;;10.27;;
16436;SDS011;8328;52.206;21.006;2023-02-28T01:14:41;17.70;;;9.95;;
16436;SDS011;8328;52.206;21.006;2023-02-28T01:17:07;15.52;;;9.95;;
16436;SDS011;8328;52.206;21.006;2023-02-28T01:19:33;18.65;;;11.20;;
16436;SDS011;8328;52.206;21.006;2023-02-28T01:22:01;20.92;;;11.75;;
16436;SDS011;8328;52.206;21.006;2023-02-28T01:24:27;17.13;;;9.60;;
16436;SDS011;8328;52.206;21.006;2023-02-28T01:26:53;17.10;;;10.05;;
16436;SDS011;8328;52.206;21.006;2023-02-28T01:29:19;18.23;;;10.27;;
16436;SDS011;8328;52.206;21.006;2023-02-28T01:31:45;18.70;;;10.13;;
16436;SDS011;8328;52.206;21.006;2023-02-28T01:34:10;19.90;;;9.97;;
16436;SDS011;8328;52.206;21.006;2023-02-28T01:36:37;18.42;;;9.75;;
16436;SDS011;8328;52.206;21.006;2023-02-28T01:39:03;20.10;;;10.93;;
16436;SDS011;8328;52.206;21.006;2023-02-28T01:41:30;19.45;;;9.80;;
16436;SDS011;8328;52.206;21.006;2023-02-28T01:43:59;17.25;;;8.90;;
16436;SDS011;8328;52.206;21.006;2023-02-28T01:46:46;17.02;;;9.02;;
16436;SDS011;8328;52.206;21.006;2023-02-28T01:49:13;14.90;;;8.57;;
16436;SDS011;8328;52.206;21.006;2023-02-28T01:51:43;18.10;;;8.73;;
16436;SDS011;8328;52.206;21.006;2023-02-28T01:54:20;14.32;;;9.13;;
16436;SDS011;8328;52.206;21.006;2023-02-28T01:56:56;16.23;;;9.02;;
16436;SDS011;8328;52.206;21.006;2023-02-28T01:59:31;15.25;;;7.60;;
16436;SDS011;8328;52.206;21.006;2023-02-28T02:02:01;12.95;;;8.23;;
16436;SDS011;8328;52.206;21.006;2023-02-28T02:04:38;13.75;;;7.53;;
16436;SDS011;8328;52.206;21.006;2023-02-28T02:07:11;13.77;;;8.15;;
16436;SDS011;8328;52.206;21.006;2023-02-28T02:09:41;11.57;;;7.78;;
16436;SDS011;8328;52.206;21.006;2023-02-28T02:12:16;11.10;;;7.23;;
16436;SDS011;8328;52.206;21.006;2023-02-28T02:17:35;13.82;;;7.60;;
16436;SDS011;8328;52.206;21.006;2023-02-28T02:23:03;13.07;;;7.43;;
16436;SDS011;8328;52.206;21.006;2023-02-28T02:25:45;14.73;;;7.10;;
16436;SDS011;8328;52.206;21.006;2023-02-28T02:33:17;12.68;;;7.15;;
16436;SDS011;8328;52.206;21.006;2023-02-28T02:39:22;13.25;;;6.75;;
16436;SDS011;8328;52.206;21.006;2023-02-28T02:41:47;11.23;;;6.88;;
16436;SDS011;8328;52.206;21.006;2023-02-28T02:46:48;10.95;;;6.90;;
16436;SDS011;8328;52.206;21.006;2023-02-28T02:49:20;11.68;;;7.38;;
16436;SDS011;8328;52.206;21.006;2023-02-28T02:51:50;11.77;;;7.00;;
16436;SDS011;8328;52.206;21.006;2023-02-28T02:54:22;13.10;;;7.10;;
16436;SDS011;8328;52.206;21.006;2023-02-28T02:56:53;14.18;;;6.85;;
16436;SDS011;8328;52.206;21.006;2023-02-28T02:59:21;12.35;;;6.80;;
16436;SDS011;8328;52.206;21.006;2023-02-28T03:01:50;11.50;;;6.82;;
16436;SDS011;8328;52.206;21.006;2023-02-28T03:04:19;10.02;;;6.10;;
16436;SDS011;8328;52.206;21.006;2023-02-28T03:06:47;11.18;;;6.80;;
16436;SDS011;8328;52.206;21.006;2023-02-28T03:09:13;11.50;;;6.38;;
16436;SDS011;8328;52.206;21.006;2023-02-28T03:11:39;10.73;;;6.87;;
16436;SDS011;8328;52.206;21.006;2023-02-28T03:14:14;10.93;;;6.60;;
16436;SDS011;8328;52.206;21.006;2023-02-28T03:19:38;13.02;;;6.47;;
16436;SDS011;8328;52.206;21.006;2023-02-28T03:22:22;12.75;;;7.18;;
16436;SDS011;8328;52.206;21.006;2023-02-28T03:25:09;11.82;;;7.13;;
16436;SDS011;8328;52.206;21.006;2023-02-28T03:30:49;11.05;;;7.07;;
16436;SDS011;8328;52.206;21.006;2023-02-28T03:33:38;11.43;;;6.93;;
16436;SDS011;8328;52.206;21.006;2023-02-28T03:36:13;12.38;;;7.20;;
16436;SDS011;8328;52.206;21.006;2023-02-28T03:41:13;13.77;;;7.82;;
16436;SDS011;8328;52.206;21.006;2023-02-28T03:46:41;13.70;;;7.88;;
16436;SDS011;8328;52.206;21.006;2023-02-28T03:49:30;11.70;;;7.93;;
16436;SDS011;8328;52.206;21.006;2023-02-28T03:52:01;15.38;;;8.38;;
16436;SDS011;8328;52.206;21.006;2023-02-28T03:54:30;13.25;;;8.13;;
16436;SDS011;8328;52.206;21.006;2023-02-28T03:56:59;12.45;;;8.30;;
16436;SDS011;8328;52.206;21.006;2023-02-28T03:59:35;14.23;;;8.02;;
16436;SDS011;8328;52.206;21.006;2023-02-28T04:02:04;11.85;;;7.53;;
16436;SDS011;8328;52.206;21.006;2023-02-28T04:04:30;13.88;;;7.68;;
16436;SDS011;8328;52.206;21.006;2023-02-28T04:07:00;14.63;;;7.63;;
16436;SDS011;8328;52.206;21.006;2023-02-28T04:09:33;18.05;;;8.50;;
16436;SDS011;8328;52.206;21.006;2023-02-28T04:11:58;13.23;;;8.00;;
16436;SDS011;8328;52.206;21.006;2023-02-28T04:14:25;14.32;;;8.27;;
16436;SDS011;8328;52.206;21.006;2023-02-28T04:16:51;12.73;;;8.15;;
16436;SDS011;8328;52.206;21.006;2023-02-28T04:19:17;22.27;;;9.10;;
16436;SDS011;8328;52.206;21.006;2023-02-28T04:21:45;22.65;;;8.68;;
16436;SDS011;8328;52.206;21.006;2023-02-28T04:24:20;13.40;;;7.57;;
16436;SDS011;8328;52.206;21.006;2023-02-28T04:26:49;13.88;;;8.20;;
16436;SDS011;8328;52.206;21.006;2023-02-28T04:29:21;12.30;;;7.35;;
16436;SDS011;8328;52.206;21.006;2023-02-28T04:31:52;13.30;;;7.85;;
16436;SDS011;8328;52.206;21.006;2023-02-28T04:34:19;11.48;;;7.32;;
16436;SDS011;8328;52.206;21.006;2023-02-28T04:36:46;14.35;;;8.20;;
16436;SDS011;8328;52.206;21.006;2023-02-28T04:39:14;14.68;;;7.57;;
16436;SDS011;8328;52.206;21.006;2023-02-28T04:41:43;13.88;;;7.78;;
16436;SDS011;8328;52.206;21.006;2023-02-28T04:44:10;13.38;;;8.45;;
16436;SDS011;8328;52.206;21.006;2023-02-28T04:46:36;14.45;;;7.93;;
16436;SDS011;8328;52.206;21.006;2023-02-28T04:49:02;14.40;;;8.43;;
16436;SDS011;8328;52.206;21.006;2023-02-28T04:51:28;12.77;;;7.60;;
16436;SDS011;8328;52.206;21.006;2023-02-28T04:53:54;12.20;;;7.63;;
16436;SDS011;8328;52.206;21.006;2023-02-28T04:56:20;14.05;;;8.18;;
16436;SDS011;8328;52.206;21.006;2023-02-28T04:58:47;11.95;;;7.55;;
16436;SDS011;8328;52.206;21.006;2023-02-28T05:01:35;12.50;;;7.82;;
16436;SDS011;8328;52.206;21.006;2023-02-28T05:04:02;12.48;;;7.45;;
16436;SDS011;8328;52.206;21.006;2023-02-28T05:06:29;13.52;;;8.02;;
16436;SDS011;8328;52.206;21.006;2023-02-28T05:08:57;12.93;;;7.50;;
16436;SDS011;8328;52.206;21.006;2023-02-28T05:11:25;13.27;;;8.13;;
16436;SDS011;8328;52.206;21.006;2023-02-28T05:13:59;12.75;;;7.80;;
16436;SDS011;8328;52.206;21.006;2023-02-28T05:16:26;13.68;;;8.10;;
16436;SDS011;8328;52.206;21.006;2023-02-28T05:18:52;10.87;;;7.10;;
16436;SDS011;8328;52.206;21.006;2023-02-28T05:23:50;12.77;;;7.57;;
16436;SDS011;8328;52.206;21.006;2023-02-28T05:26:16;13.02;;;8.40;;
16436;SDS011;8328;52.206;21.006;2023-02-28T05:28:42;13.13;;;7.80;;
16436;SDS011;8328;52.206;21.006;2023-02-28T05:31:11;12.07;;;8.10;;
16436;SDS011;8328;52.206;21.006;2023-02-28T05:33:37;13.32;;;7.28;;
16436;SDS011;8328;52.206;21.006;2023-02-28T05:36:04;14.20;;;8.05;;
16436;SDS011;8328;52.206;21.006;2023-02-28T05:38:30;12.05;;;7.32;;
16436;SDS011;8328;52.206;21.006;2023-02-28T05:40:56;12.27;;;7.10;;
16436;SDS011;8328;52.206;21.006;2023-02-28T05:43:22;12.60;;;7.40;;
16436;SDS011;8328;52.206;21.006;2023-02-28T05:45:49;11.88;;;7.47;;
16436;SDS011;8328;52.206;21.006;2023-02-28T05:48:15;17.17;;;7.70;;
16436;SDS011;8328;52.206;21.006;2023-02-28T05:50:41;15.27;;;7.93;;
16436;SDS011;8328;52.206;21.006;2023-02-28T05:53:09;17.70;;;8.30;;
16436;SDS011;8328;52.206;21.006;2023-02-28T05:55:35;13.60;;;7.67;;
16436;SDS011;8328;52.206;21.006;2023-02-28T05:58:02;12.98;;;7.40;;
16436;SDS011;8328;52.206;21.006;2023-02-28T06:00:28;14.80;;;7.55;;
16436;SDS011;8328;52.206;21.006;2023-02-28T06:02:54;15.10;;;7.97;;
16436;SDS011;8328;52.206;21.006;2023-02-28T06:05:23;11.50;;;7.18;;
16436;SDS011;8328;52.206;21.006;2023-02-28T06:07:49;16.30;;;8.23;;
16436;SDS011;8328;52.206;21.006;2023-02-28T06:10:16;13.80;;;8.23;;
16436;SDS011;8328;52.206;21.006;2023-02-28T06:12:42;13.33;;;7.80;;
16436;SDS011;8328;52.206;21.006;2023-02-28T06:15:14;12.57;;;7.23;;
16436;SDS011;8328;52.206;21.006;2023-02-28T06:17:41;11.75;;;7.85;;
16436;SDS011;8328;52.206;21.006;2023-02-28T06:20:07;12.48;;;7.95;;
16436;SDS011;8328;52.206;21.006;2023-02-28T06:22:37;12.60;;;8.02;;
16436;SDS011;8328;52.206;21.006;2023-02-28T06:25:04;9.60;;;7.00;;
16436;SDS011;8328;52.206;21.006;2023-02-28T06:27:33;11.88;;;6.75;;
16436;SDS011;8328;52.206;21.006;2023-02-28T06:29:59;13.27;;;7.80;;
16436;SDS011;8328;52.206;21.006;2023-02-28T06:32:25;12.57;;;8.27;;
16436;SDS011;8328;52.206;21.006;2023-02-28T06:34:51;11.43;;;7.53;;
16436;SDS011;8328;52.206;21.006;2023-02-28T06:37:18;13.30;;;7.53;;
16436;SDS011;8328;52.206;21.006;2023-02-28T06:39:44;11.10;;;7.40;;
16436;SDS011;8328;52.206;21.006;2023-02-28T06:42:10;13.40;;;7.93;;
16436;SDS011;8328;52.206;21.006;2023-02-28T06:44:35;11.73;;;8.27;;
16436;SDS011;8328;52.206;21.006;2023-02-28T06:47:02;12.50;;;7.43;;
16436;SDS011;8328;52.206;21.006;2023-02-28T06:49:33;11.45;;;6.95;;
16436;SDS011;8328;52.206;21.006;2023-02-28T06:52:01;10.80;;;7.07;;
16436;SDS011;8328;52.206;21.006;2023-02-28T06:54:27;10.40;;;7.20;;
16436;SDS011;8328;52.206;21.006;2023-02-28T06:56:53;13.17;;;7.60;;
16436;SDS011;8328;52.206;21.006;2023-02-28T06:59:19;11.67;;;7.50;;
16436;SDS011;8328;52.206;21.006;2023-02-28T07:01:46;9.93;;;6.38;;
16436;SDS011;8328;52.206;21.006;2023-02-28T07:04:11;11.93;;;6.90;;
16436;SDS011;8328;52.206;21.006;2023-02-28T07:06:38;14.32;;;7.22;;
16436;SDS011;8328;52.206;21.006;2023-02-28T07:09:04;15.97;;;7.97;;
16436;SDS011;8328;52.206;21.006;2023-02-28T07:11:30;13.50;;;7.70;;
16436;SDS011;8328;52.206;21.006;2023-02-28T07:13:56;9.27;;;6.43;;
16436;SDS011;8328;52.206;21.006;2023-02-28T07:16:26;11.73;;;7.70;;
16436;SDS011;8328;52.206;21.006;2023-02-28T07:18:52;14.77;;;8.40;;
16436;SDS011;8328;52.206;21.006;2023-02-28T07:21:18;21.57;;;11.47;;
16436;SDS011;8328;52.206;21.006;2023-02-28T07:23:44;13.60;;;8.97;;
16436;SDS011;8328;52.206;21.006;2023-02-28T07:26:13;12.37;;;7.97;;
16436;SDS011;8328;52.206;21.006;2023-02-28T07:28:43;12.07;;;7.33;;
16436;SDS011;8328;52.206;21.006;2023-02-28T07:31:10;9.43;;;6.30;;
16436;SDS011;8328;52.206;21.006;2023-02-28T07:33:40;11.80;;;6.63;;
16436;SDS011;8328;52.206;21.006;2023-02-28T07:36:07;9.17;;;6.23;;
16436;SDS011;8328;52.206;21.006;2023-02-28T07:38:40;9.03;;;5.83;;
16436;SDS011;8328;52.206;21.006;2023-02-28T07:41:09;8.10;;;5.77;;
16436;SDS011;8328;52.206;21.006;2023-02-28T07:43:35;9.73;;;6.73;;
16436;SDS011;8328;52.206;21.006;2023-02-28T07:46:02;8.87;;;6.23;;
16436;SDS011;8328;52.206;21.006;2023-02-28T07:48:31;11.10;;;7.17;;
16436;SDS011;8328;52.206;21.006;2023-02-28T07:50:58;11.03;;;6.70;;
16436;SDS011;8328;52.206;21.006;2023-02-28T07:53:25;10.87;;;7.17;;
16436;SDS011;8328;52.206;21.006;2023-02-28T07:55:56;10.33;;;6.80;;
16436;SDS011;8328;52.206;21.006;2023-02-28T07:58:27;11.77;;;7.30;;
16436;SDS011;8328;52.206;21.006;2023-02-28T08:00:54;12.80;;;7.70;;
16436;SDS011;8328;52.206;21.006;2023-02-28T08:03:22;18.93;;;8.70;;
16436;SDS011;8328;52.206;21.006;2023-02-28T08:05:48;10.03;;;6.90;;
16436;SDS011;8328;52.206;21.006;2023-02-28T08:08:20;7.90;;;5.50;;
16436;SDS011;8328;52.206;21.006;2023-02-28T08:10:46;10.97;;;6.80;;
16436;SDS011;8328;52.206;21.006;2023-02-28T08:13:21;8.73;;;5.47;;
16436;SDS011;8328;52.206;21.006;2023-02-28T08:15:47;8.17;;;5.60;;
16436;SDS011;8328;52.206;21.006;2023-02-28T08:18:13;7.57;;;5.67;;
16436;SDS011;8328;52.206;21.006;2023-02-28T08:20:39;10.57;;;6.60;;
16436;SDS011;8328;52.206;21.006;2023-02-28T08:23:05;10.93;;;6.03;;
16436;SDS011;8328;52.206;21.006;2023-02-28T08:25:31;8.77;;;6.60;;
16436;SDS011;8328;52.206;21.006;2023-02-28T08:27:56;9.40;;;6.43;;
16436;SDS011;8328;52.206;21.006;2023-02-28T08:30:22;8.30;;;6.73;;
16436;SDS011;8328;52.206;21.006;2023-02-28T08:32:48;9.97;;;6.60;;
16436;SDS011;8328;52.206;21.006;2023-02-28T08:35:15;8.67;;;6.43;;
16436;SDS011;8328;52.206;21.006;2023-02-28T08:37:41;9.83;;;6.57;;
16436;SDS011;8328;52.206;21.006;2023-02-28T08:40:07;10.13;;;7.53;;
16436;SDS011;8328;52.206;21.006;2023-02-28T08:42:33;12.53;;;8.53;;
16436;SDS011;8328;52.206;21.006;2023-02-28T08:44:59;12.03;;;7.97;;
16436;SDS011;8328;52.206;21.006;2023-02-28T08:47:25;10.17;;;7.03;;
16436;SDS011;8328;52.206;21.006;2023-02-28T08:49:57;15.40;;;8.20;;
16436;SDS011;8328;52.206;21.006;2023-02-28T08:52:22;12.47;;;7.47;;
16436;SDS011;8328;52.206;21.006;2023-02-28T08:54:48;10.83;;;7.20;;
16436;SDS011;8328;52.206;21.006;2023-02-28T08:57:14;11.17;;;7.40;;
16436;SDS011;8328;52.206;21.006;2023-02-28T08:59:41;9.93;;;7.23;;
16436;SDS011;8328;52.206;21.006;2023-02-28T09:02:08;11.77;;;8.10;;
16436;SDS011;8328;52.206;21.006;2023-02-28T09:04:37;10.17;;;8.13;;
16436;SDS011;8328;52.206;21.006;2023-02-28T09:07:03;9.33;;;6.90;;
16436;SDS011;8328;52.206;21.006;2023-02-28T09:09:30;10.73;;;7.93;;
16436;SDS011;8328;52.206;21.006;2023-02-28T09:11:56;10.37;;;7.53;;
16436;SDS011;8328;52.206;21.006;2023-02-28T09:14:22;13.37;;;7.37;;
16436;SDS011;8328;52.206;21.006;2023-02-28T09:16:49;13.90;;;7.87;;
16436;SDS011;8328;52.206;21.006;2023-02-28T09:19:15;13.83;;;8.13;;
16436;SDS011;8328;52.206;21.006;2023-02-28T09:21:42;13.63;;;8.10;;
16436;SDS011;8328;52.206;21.006;2023-02-28T09:24:11;10.00;;;6.97;;
16436;SDS011;8328;52.206;21.006;2023-02-28T09:26:39;13.53;;;7.57;;
16436;SDS011;8328;52.206;21.006;2023-02-28T09:29:05;13.80;;;8.60;;
16436;SDS011;8328;52.206;21.006;2023-02-28T09:31:31;12.07;;;7.43;;
16436;SDS011;8328;52.206;21.006;2023-02-28T09:33:58;9.33;;;6.83;;
16436;SDS011;8328;52.206;21.006;2023-02-28T09:36:25;10.17;;;7.40;;
16436;SDS011;8328;52.206;21.006;2023-02-28T09:38:53;12.67;;;7.80;;
16436;SDS011;8328;52.206;21.006;2023-02-28T09:41:20;10.00;;;7.47;;
16436;SDS011;8328;52.206;21.006;2023-02-28T09:43:59;11.73;;;7.00;;
16436;SDS011;8328;52.206;21.006;2023-02-28T09:46:38;16.17;;;11.70;;
16436;SDS011;8328;52.206;21.006;2023-02-28T09:49:16;16.13;;;9.70;;
16436;SDS011;8328;52.206;21.006;2023-02-28T09:52:03;10.53;;;7.17;;
16436;SDS011;8328;52.206;21.006;2023-02-28T09:54:36;14.73;;;8.97;;
16436;SDS011;8328;52.206;21.006;2023-02-28T09:59:48;10.13;;;6.80;;
16436;SDS011;8328;52.206;21.006;2023-02-28T10:05:08;10.90;;;7.30;;
16436;SDS011;8328;52.206;21.006;2023-02-28T10:10:51;13.53;;;8.33;;
16436;SDS011;8328;52.206;21.006;2023-02-28T10:19:31;11.97;;;8.43;;
16436;SDS011;8328;52.206;21.006;2023-02-28T10:24:48;15.17;;;8.63;;
16436;SDS011;8328;52.206;21.006;2023-02-28T10:27:17;14.60;;;8.10;;
16436;SDS011;8328;52.206;21.006;2023-02-28T10:29:47;10.63;;;7.80;;
16436;SDS011;8328;52.206;21.006;2023-02-28T10:32:23;12.80;;;8.70;;
16436;SDS011;8328;52.206;21.006;2023-02-28T10:37:48;12.20;;;8.40;;
16436;SDS011;8328;52.206;21.006;2023-02-28T10:45:25;14.13;;;8.80;;
16436;SDS011;8328;52.206;21.006;2023-02-28T10:47:56;14.10;;;9.40;;
16436;SDS011;8328;52.206;21.006;2023-02-28T10:50:37;14.67;;;9.43;;
16436;SDS011;8328;52.206;21.006;2023-02-28T10:55:59;13.40;;;9.40;;
16436;SDS011;8328;52.206;21.006;2023-02-28T10:58:28;11.00;;;8.93;;
16436;SDS011;8328;52.206;21.006;2023-02-28T11:00:55;12.27;;;9.23;;
16436;SDS011;8328;52.206;21.006;2023-02-28T11:05:55;14.67;;;8.63;;
16436;SDS011;8328;52.206;21.006;2023-02-28T11:08:22;11.97;;;8.90;;
16436;SDS011;8328;52.206;21.006;2023-02-28T11:10:59;15.03;;;9.03;;
16436;SDS011;8328;52.206;21.006;2023-02-28T11:13:36;13.37;;;9.07;;
16436;SDS011;8328;52.206;21.006;2023-02-28T11:16:07;14.67;;;8.47;;
16436;SDS011;8328;52.206;21.006;2023-02-28T11:18:44;12.00;;;9.00;;
16436;SDS011;8328;52.206;21.006;2023-02-28T11:21:21;13.67;;;9.27;;
16436;SDS011;8328;52.206;21.006;2023-02-28T11:23:56;10.73;;;8.37;;
16436;SDS011;8328;52.206;21.006;2023-02-28T11:26:46;11.73;;;8.80;;
16436;SDS011;8328;52.206;21.006;2023-02-28T11:29:18;14.20;;;9.63;;
16436;SDS011;8328;52.206;21.006;2023-02-28T11:35:03;12.20;;;9.20;;
16436;SDS011;8328;52.206;21.006;2023-02-28T11:37:44;14.90;;;10.03;;
16436;SDS011;8328;52.206;21.006;2023-02-28T11:40:14;11.27;;;9.00;;
16436;SDS011;8328;52.206;21.006;2023-02-28T11:45:36;13.37;;;9.20;;
16436;SDS011;8328;52.206;21.006;2023-02-28T11:48:45;12.73;;;9.30;;
16436;SDS011;8328;52.206;21.006;2023-02-28T11:56:57;16.27;;;10.97;;
16436;SDS011;8328;52.206;21.006;2023-02-28T12:00:03;14.33;;;10.10;;
16436;SDS011;8328;52.206;21.006;2023-02-28T12:13:24;12.37;;;9.60;;
16436;SDS011;8328;52.206;21.006;2023-02-28T12:24:00;14.33;;;9.37;;
16436;SDS011;8328;52.206;21.006;2023-02-28T12:26:46;14.17;;;9.37;;
16436;SDS011;8328;52.206;21.006;2023-02-28T12:29:19;12.30;;;8.47;;
16436;SDS011;8328;52.206;21.006;2023-02-28T12:31:49;9.90;;;8.50;;
16436;SDS011;8328;52.206;21.006;2023-02-28T12:34:44;12.47;;;9.50;;
16436;SDS011;8328;52.206;21.006;2023-02-28T12:37:17;11.30;;;8.67;;
16436;SDS011;8328;52.206;21.006;2023-02-28T12:39:49;14.17;;;9.33;;
16436;SDS011;8328;52.206;21.006;2023-02-28T12:42:30;12.53;;;9.77;;
16436;SDS011;8328;52.206;21.006;2023-02-28T12:45:04;13.63;;;9.53;;
16436;SDS011;8328;52.206;21.006;2023-02-28T12:47:38;12.67;;;8.97;;
16436;SDS011;8328;52.206;21.006;2023-02-28T12:50:08;12.20;;;8.77;;
16436;SDS011;8328;52.206;21.006;2023-02-28T12:57:58;13.37;;;9.33;;
16436;SDS011;8328;52.206;21.006;2023-02-28T13:00:51;19.20;;;9.50;;
16436;SDS011;8328;52.206;21.006;2023-02-28T13:06:29;18.30;;;10.23;;
16436;SDS011;8328;52.206;21.006;2023-02-28T13:09:15;12.10;;;8.73;;
16436;SDS011;8328;52.206;21.006;2023-02-28T13:11:46;13.03;;;9.37;;
16436;SDS011;8328;52.206;21.006;2023-02-28T13:19:28;15.20;;;9.70;;
16436;SDS011;8328;52.206;21.006;2023-02-28T13:21:56;17.33;;;9.57;;
16436;SDS011;8328;52.206;21.006;2023-02-28T13:24:43;16.60;;;10.13;;
16436;SDS011;8328;52.206;21.006;2023-02-28T13:29:40;17.83;;;10.67;;
16436;SDS011;8328;52.206;21.006;2023-02-28T13:34:34;12.07;;;8.70;;
16436;SDS011;8328;52.206;21.006;2023-02-28T13:37:44;12.47;;;9.00;;
16436;SDS011;8328;52.206;21.006;2023-02-28T13:39:58;16.63;;;9.63;;
16436;SDS011;8328;52.206;21.006;2023-02-28T13:47:39;18.23;;;10.60;;
16436;SDS011;8328;52.206;21.006;2023-02-28T13:55:49;16.13;;;9.87;;
16436;SDS011;8328;52.206;21.006;2023-02-28T14:01:38;15.23;;;9.97;;
16436;SDS011;8328;52.206;21.006;2023-02-28T14:07:18;16.10;;;9.93;;
16436;SDS011;8328;52.206;21.006;2023-02-28T14:09:56;14.80;;;10.37;;
16436;SDS011;8328;52.206;21.006;2023-02-28T14:18:21;13.63;;;9.20;;
16436;SDS011;8328;52.206;21.006;2023-02-28T14:21:01;13.10;;;8.60;;
16436;SDS011;8328;52.206;21.006;2023-02-28T14:31:29;18.33;;;10.83;;
16436;SDS011;8328;52.206;21.006;2023-02-28T14:37:00;11.27;;;8.83;;
16436;SDS011;8328;52.206;21.006;2023-02-28T14:39:28;15.77;;;8.20;;
16436;SDS011;8328;52.206;21.006;2023-02-28T14:41:56;13.67;;;9.10;;
16436;SDS011;8328;52.206;21.006;2023-02-28T14:44:28;17.37;;;9.63;;
16436;SDS011;8328;52.206;21.006;2023-02-28T14:46:58;12.67;;;8.70;;
16436;SDS011;8328;52.206;21.006;2023-02-28T14:49:52;14.07;;;8.73;;
16436;SDS011;8328;52.206;21.006;2023-02-28T14:52:22;11.60;;;7.70;;
16436;SDS011;8328;52.206;21.006;2023-02-28T14:54:58;12.87;;;9.17;;
16436;SDS011;8328;52.206;21.006;2023-02-28T14:57:30;13.93;;;8.07;;
16436;SDS011;8328;52.206;21.006;2023-02-28T15:02:39;13.50;;;8.47;;
16436;SDS011;8328;52.206;21.006;2023-02-28T15:07:35;11.93;;;8.70;;
16436;SDS011;8328;52.206;21.006;2023-02-28T15:10:21;13.07;;;8.30;;
16436;SDS011;8328;52.206;21.006;2023-02-28T15:12:55;14.40;;;9.37;;
16436;SDS011;8328;52.206;21.006;2023-02-28T15:15:43;13.73;;;8.63;;
16436;SDS011;8328;52.206;21.006;2023-02-28T15:21:12;13.83;;;7.83;;
16436;SDS011;8328;52.206;21.006;2023-02-28T15:23:44;11.43;;;8.10;;
16436;SDS011;8328;52.206;21.006;2023-02-28T15:26:29;12.57;;;8.23;;
16436;SDS011;8328;52.206;21.006;2023-02-28T15:31:50;13.07;;;9.13;;
16436;SDS011;8328;52.206;21.006;2023-02-28T15:34:30;14.37;;;8.63;;
16436;SDS011;8328;52.206;21.006;2023-02-28T15:36:58;13.90;;;8.37;;
16436;SDS011;8328;52.206;21.006;2023-02-28T15:39:48;12.10;;;8.10;;
16436;SDS011;8328;52.206;21.006;2023-02-28T15:42:21;13.60;;;8.17;;
16436;SDS011;8328;52.206;21.006;2023-02-28T15:44:48;13.53;;;9.07;;
16436;SDS011;8328;52.206;21.006;2023-02-28T15:47:16;15.03;;;8.20;;
16436;SDS011;8328;52.206;21.006;2023-02-28T15:49:47;15.13;;;7.83;;
16436;SDS011;8328;52.206;21.006;2023-02-28T15:52:16;15.40;;;8.60;;
16436;SDS011;8328;52.206;21.006;2023-02-28T15:54:44;13.87;;;8.73;;
16436;SDS011;8328;52.206;21.006;2023-02-28T15:57:19;14.27;;;8.70;;
16436;SDS011;8328;52.206;21.006;2023-02-28T15:59:54;14.73;;;8.77;;
16436;SDS011;8328;52.206;21.006;2023-02-28T16:02:33;16.93;;;9.23;;
16436;SDS011;8328;52.206;21.006;2023-02-28T16:07:33;17.57;;;9.80;;
16436;SDS011;8328;52.206;21.006;2023-02-28T16:10:08;15.73;;;9.07;;
16436;SDS011;8328;52.206;21.006;2023-02-28T16:12:36;14.30;;;8.77;;
16436;SDS011;8328;52.206;21.006;2023-02-28T16:15:07;16.80;;;9.27;;
16436;SDS011;8328;52.206;21.006;2023-02-28T16:17:34;15.17;;;9.53;;
16436;SDS011;8328;52.206;21.006;2023-02-28T16:20:13;14.93;;;9.47;;
16436;SDS011;8328;52.206;21.006;2023-02-28T16:22:41;18.07;;;9.73;;
16436;SDS011;8328;52.206;21.006;2023-02-28T16:25:11;16.13;;;10.53;;
16436;SDS011;8328;52.206;21.006;2023-02-28T16:27:40;17.10;;;11.60;;
16436;SDS011;8328;52.206;21.006;2023-02-28T16:30:09;17.87;;;9.13;;
16436;SDS011;8328;52.206;21.006;2023-02-28T16:32:49;18.47;;;10.33;;
16436;SDS011;8328;52.206;21.006;2023-02-28T16:35:17;15.37;;;9.87;;
16436;SDS011;8328;52.206;21.006;2023-02-28T16:37:45;18.37;;;11.10;;
16436;SDS011;8328;52.206;21.006;2023-02-28T16:40:15;17.03;;;10.37;;
16436;SDS011;8328;52.206;21.006;2023-02-28T16:42:43;14.43;;;9.93;;
16436;SDS011;8328;52.206;21.006;2023-02-28T16:45:14;17.23;;;10.85;;
16436;SDS011;8328;52.206;21.006;2023-02-28T16:47:48;22.77;;;10.57;;
16436;SDS011;8328;52.206;21.006;2023-02-28T16:50:19;15.70;;;10.23;;
16436;SDS011;8328;52.206;21.006;2023-02-28T16:52:55;21.30;;;11.30;;
16436;SDS011;8328;52.206;21.006;2023-02-28T16:55:24;18.67;;;11.10;;
16436;SDS011;8328;52.206;21.006;2023-02-28T16:57:51;21.57;;;11.73;;
16436;SDS011;8328;52.206;21.006;2023-02-28T17:00:23;20.17;;;11.27;;
16436;SDS011;8328;52.206;21.006;2023-02-28T17:02:53;20.30;;;10.60;;
16436;SDS011;8328;52.206;21.006;2023-02-28T17:05:20;18.03;;;10.50;;
16436;SDS011;8328;52.206;21.006;2023-02-28T17:07:47;18.17;;;11.90;;
16436;SDS011;8328;52.206;21.006;2023-02-28T17:10:26;20.67;;;12.20;;
16436;SDS011;8328;52.206;21.006;2023-02-28T17:12:54;19.60;;;12.27;;
16436;SDS011;8328;52.206;21.006;2023-02-28T17:15:21;25.83;;;12.43;;
16436;SDS011;8328;52.206;21.006;2023-02-28T17:17:47;19.57;;;12.07;;
16436;SDS011;8328;52.206;21.006;2023-02-28T17:20:15;19.80;;;12.70;;
16436;SDS011;8328;52.206;21.006;2023-02-28T17:22:42;21.48;;;12.50;;
16436;SDS011;8328;52.206;21.006;2023-02-28T17:25:08;23.23;;;12.93;;
16436;SDS011;8328;52.206;21.006;2023-02-28T17:27:35;20.97;;;12.73;;
16436;SDS011;8328;52.206;21.006;2023-02-28T17:30:03;27.17;;;13.60;;